11:04
Airports
History
Links
Donate
Help keep this website running!
PayPal
Bitcoin
Information on this page is community maintained and may be outdated or inaccurate and is intended for reference only or PC simulator navigating!
Always use approved charts for navigating.
SIQE
Botelho
Botelho (SIQE)
Brasília, Distrito Federal, Brazil
4
Lat/Lng:15° 56' 30" S / 47° 43' 13" W
-15.941667 / -47.720278
Elevation:3399'ft 1036mMSL
ID / ICAO:SIQE
Runways:1
Longest:(14-32) 1,754.2m 5,755ft Gravel
Distance To
Airport ID:
Nearby WeatherUpdated 04-30-17 11:00 GMT
Nearby weather at SBBR, Brasilia Presidente Juscelino Kubitsch located 14.1 nautical miles from SIQE
Altimeter: 30.21
Visibility: 6.2 statute miles
Wind: 11 knots (130°)
Temp: 22°c 72°f
Humidity: 83.1%

METAR: SBBR 301100Z 13011KT 9999 FEW040 22/19 Q1023

(Powered by phpweather)
Runway 14 / 32
Dimensions:1754.2 x 29.9m 5755' x 98'ft
Surface:Gravel
Runway 14 [A]Runway 32 [B]
Heading:120°TH 300°TH
Lat:
Lng:
15° 56' 15.72"S
47° 43' 38.63"W
15° 56' 44.28"S
47° 42' 47.37"W
Google Map
Nearby Airports
4 Piquet 8.3 NM
SSGP NW 316°
(C) Brasilia Presidente Juscelino Kubitsch 14.1 NM
SBBR (WX) WNW 290°
4 Aerorancho 18.3 NM
SDNT N 349°
(U) Fazenda Pamplona 20.0 NM
SWFA SSE 161°
4 Planaltina 21.6 NM
SWPV NNE 32°
(C) Luziania 27.6 NM
SWUZ SW 216°
4 Fazenda Palma 29.3 NM
SJPH SW 234°
VFR Chart
Flight Planning at SkyVector.com